| Date | Time | Temp. (oF) | Dew Point (oF) | Rel. Hum. (%) | Press. (in.) | Wind Dir. (deg.) | Wind Speed (mph) | Hourly Rainfall (i n.) |
|
|---|---|---|---|---|---|---|---|---|---|
| 1 | 05/16 | 24:00 | 52 | 36 | 55 | 30.44 | 140 | 0 | 0.00 |
| 2 | 05/15 | 23:00 | 54 | 37 | 54 | 30.45 | 140 | 0 | 0.00 |
| 3 | 05/15 | 22:00 | 57 | 37 | 49 | 30.45 | 140 | 0 | 0.00 |
| 4 | 05/15 | 21:00 | 60 | 36 | 42 | 30.43 | 140 | 1 | 0.00 |
| 5 | 05/15 | 20:00 | 64 | 37 | 38 | 30.43 | 130 | 0 | 0.00 |
| 6 | 05/15 | 19:00 | 68 | 37 | 33 | 30.45 | 180 | 2 | 0.00 |
| 7 | 05/15 | 18:00 | 71 | 38 | 31 | 30.46 | 150 | 1 | 0.00 |
| 8 | 05/15 | 17:00 | 72 | 40 | 32 | 30.42 | 130 | 4 | 0.00 |
| 9 | 05/15 | 16:00 | 72 | 43 | 36 | 30.42 | 360 | 7 | 0.00 |
| 10 | 05/15 | 15:00 | 71 | 44 | 39 | 30.41 | 110 | 2 | 0.00 |
| 11 | 05/15 | 14:00 | 71 | 45 | 40 | 30.42 | 330 | 1 | 0.00 |
| 12 | 05/15 | 13:00 | 68 | 43 | 42 | 30.43 | 30 | 2 | 0.00 |
| 13 | 05/15 | 12:00 | 68 | 43 | 42 | 30.43 | 130 | 1 | 0.00 |
| 14 | 05/15 | 11:00 | 65 | 43 | 46 | 30.41 | 130 | 1 | 0.00 |
| 15 | 05/15 | 10:00 | 57 | 41 | 57 | 30.40 | 140 | 1 | 0.00 |
| 16 | 05/15 | 09:00 | 50 | 42 | 75 | 30.43 | 140 | 0 | 0.00 |
| 17 | 05/15 | 08:00 | 45 | 39 | 82 | 30.41 | 140 | 0 | 0.00 |
| 18 | 05/15 | 07:00 | 43 | 37 | 82 | 30.37 | 140 | 0 | 0.00 |
| 19 | 05/15 | 06:00 | 43 | 37 | 81 | 30.36 | 140 | 0 | 0.00 |
| 20 | 05/15 | 05:00 | 43 | 36 | 79 | 30.35 | 140 | 0 | 0.00 |
| 21 | 05/15 | 04:00 | 44 | 37 | 78 | 30.36 | 140 | 0 | 0.00 |
| 22 | 05/15 | 03:00 | 45 | 36 | 73 | 30.36 | 140 | 0 | 0.00 |
| 23 | 05/15 | 02:00 | 47 | 37 | 69 | 30.37 | 140 | 0 | 0.00 |
| 24 | 05/15 | 01:00 | 49 | 37 | 65 | 30.39 | 140 | 0 | 0.00 |